sensor_id;sensor_type;location;lat;lon;timestamp;P1;durP1;ratioP1;P2;durP2;ratioP2
20725;SDS011;10524;48.132;8.518;2023-11-19T00:00:15;4.93;;;3.90;;
20725;SDS011;10524;48.132;8.518;2023-11-19T00:02:42;5.35;;;4.18;;
20725;SDS011;10524;48.132;8.518;2023-11-19T00:05:08;7.00;;;4.78;;
20725;SDS011;10524;48.132;8.518;2023-11-19T00:07:37;5.05;;;4.50;;
20725;SDS011;10524;48.132;8.518;2023-11-19T00:10:13;5.53;;;4.93;;
20725;SDS011;10524;48.132;8.518;2023-11-19T00:12:44;8.00;;;5.47;;
20725;SDS011;10524;48.132;8.518;2023-11-19T00:15:12;6.90;;;5.30;;
20725;SDS011;10524;48.132;8.518;2023-11-19T00:17:41;6.68;;;5.30;;
20725;SDS011;10524;48.132;8.518;2023-11-19T00:20:16;6.28;;;5.35;;
20725;SDS011;10524;48.132;8.518;2023-11-19T00:22:42;8.45;;;5.60;;
20725;SDS011;10524;48.132;8.518;2023-11-19T00:25:09;9.35;;;6.35;;
20725;SDS011;10524;48.132;8.518;2023-11-19T00:27:35;7.35;;;6.20;;
20725;SDS011;10524;48.132;8.518;2023-11-19T00:30:04;8.20;;;6.63;;
20725;SDS011;10524;48.132;8.518;2023-11-19T00:32:31;8.95;;;6.43;;
20725;SDS011;10524;48.132;8.518;2023-11-19T00:34:59;8.15;;;6.32;;
20725;SDS011;10524;48.132;8.518;2023-11-19T00:37:25;8.15;;;6.57;;
20725;SDS011;10524;48.132;8.518;2023-11-19T00:39:50;8.52;;;6.63;;
20725;SDS011;10524;48.132;8.518;2023-11-19T00:42:17;8.48;;;6.95;;
20725;SDS011;10524;48.132;8.518;2023-11-19T00:44:43;7.75;;;5.93;;
20725;SDS011;10524;48.132;8.518;2023-11-19T00:47:08;7.38;;;5.43;;
20725;SDS011;10524;48.132;8.518;2023-11-19T00:49:34;8.25;;;6.70;;
20725;SDS011;10524;48.132;8.518;2023-11-19T00:52:00;10.90;;;6.60;;
20725;SDS011;10524;48.132;8.518;2023-11-19T00:54:27;7.13;;;4.45;;
20725;SDS011;10524;48.132;8.518;2023-11-19T00:56:53;6.72;;;4.65;;
20725;SDS011;10524;48.132;8.518;2023-11-19T00:59:20;6.57;;;4.35;;
20725;SDS011;10524;48.132;8.518;2023-11-19T01:01:46;7.32;;;4.50;;
20725;SDS011;10524;48.132;8.518;2023-11-19T01:04:16;7.38;;;4.50;;
20725;SDS011;10524;48.132;8.518;2023-11-19T01:06:42;5.50;;;4.20;;
20725;SDS011;10524;48.132;8.518;2023-11-19T01:09:07;5.30;;;3.65;;
20725;SDS011;10524;48.132;8.518;2023-11-19T01:11:34;5.68;;;4.20;;
20725;SDS011;10524;48.132;8.518;2023-11-19T01:14:00;5.25;;;3.85;;
20725;SDS011;10524;48.132;8.518;2023-11-19T01:16:26;5.95;;;4.03;;
20725;SDS011;10524;48.132;8.518;2023-11-19T01:18:52;4.00;;;3.40;;
20725;SDS011;10524;48.132;8.518;2023-11-19T01:21:18;4.22;;;3.47;;
20725;SDS011;10524;48.132;8.518;2023-11-19T01:23:44;4.28;;;3.25;;
20725;SDS011;10524;48.132;8.518;2023-11-19T01:26:11;3.58;;;2.90;;
20725;SDS011;10524;48.132;8.518;2023-11-19T01:28:38;4.38;;;2.75;;
20725;SDS011;10524;48.132;8.518;2023-11-19T01:31:14;4.03;;;2.70;;
20725;SDS011;10524;48.132;8.518;2023-11-19T01:33:40;3.65;;;2.40;;
20725;SDS011;10524;48.132;8.518;2023-11-19T01:36:07;2.35;;;2.15;;
20725;SDS011;10524;48.132;8.518;2023-11-19T01:38:34;2.47;;;2.08;;
20725;SDS011;10524;48.132;8.518;2023-11-19T01:41:00;2.35;;;1.77;;
20725;SDS011;10524;48.132;8.518;2023-11-19T01:43:32;3.35;;;1.80;;
20725;SDS011;10524;48.132;8.518;2023-11-19T01:46:02;1.80;;;1.52;;
20725;SDS011;10524;48.132;8.518;2023-11-19T01:48:29;3.28;;;1.70;;
20725;SDS011;10524;48.132;8.518;2023-11-19T01:50:55;2.65;;;1.90;;
20725;SDS011;10524;48.132;8.518;2023-11-19T01:53:22;1.92;;;1.73;;
20725;SDS011;10524;48.132;8.518;2023-11-19T01:55:48;2.00;;;1.70;;
20725;SDS011;10524;48.132;8.518;2023-11-19T01:58:14;4.50;;;2.00;;
20725;SDS011;10524;48.132;8.518;2023-11-19T02:00:42;2.05;;;1.70;;
20725;SDS011;10524;48.132;8.518;2023-11-19T02:03:09;1.75;;;1.50;;
20725;SDS011;10524;48.132;8.518;2023-11-19T02:05:37;2.60;;;1.77;;
20725;SDS011;10524;48.132;8.518;2023-11-19T02:08:03;2.28;;;1.60;;
20725;SDS011;10524;48.132;8.518;2023-11-19T02:10:29;2.03;;;1.70;;
20725;SDS011;10524;48.132;8.518;2023-11-19T02:12:57;2.13;;;1.45;;
20725;SDS011;10524;48.132;8.518;2023-11-19T02:15:23;7.75;;;1.77;;
20725;SDS011;10524;48.132;8.518;2023-11-19T02:17:50;1.48;;;1.25;;
20725;SDS011;10524;48.132;8.518;2023-11-19T02:20:16;1.95;;;1.20;;
20725;SDS011;10524;48.132;8.518;2023-11-19T02:22:45;2.15;;;1.23;;
20725;SDS011;10524;48.132;8.518;2023-11-19T02:25:31;1.27;;;1.00;;
20725;SDS011;10524;48.132;8.518;2023-11-19T02:28:01;1.30;;;1.10;;
20725;SDS011;10524;48.132;8.518;2023-11-19T02:30:28;1.50;;;1.10;;
20725;SDS011;10524;48.132;8.518;2023-11-19T02:32:58;1.17;;;1.08;;
20725;SDS011;10524;48.132;8.518;2023-11-19T02:35:28;1.45;;;1.15;;
20725;SDS011;10524;48.132;8.518;2023-11-19T02:37:57;1.63;;;1.00;;
20725;SDS011;10524;48.132;8.518;2023-11-19T02:40:24;1.05;;;0.95;;
20725;SDS011;10524;48.132;8.518;2023-11-19T02:42:50;0.93;;;0.82;;
20725;SDS011;10524;48.132;8.518;2023-11-19T02:45:17;0.73;;;0.73;;
20725;SDS011;10524;48.132;8.518;2023-11-19T02:47:43;1.23;;;0.80;;
20725;SDS011;10524;48.132;8.518;2023-11-19T02:50:10;0.73;;;0.73;;
20725;SDS011;10524;48.132;8.518;2023-11-19T02:52:43;0.50;;;0.50;;
20725;SDS011;10524;48.132;8.518;2023-11-19T02:55:11;0.63;;;0.55;;
20725;SDS011;10524;48.132;8.518;2023-11-19T02:57:40;0.95;;;0.50;;
20725;SDS011;10524;48.132;8.518;2023-11-19T03:00:13;1.92;;;0.43;;
20725;SDS011;10524;48.132;8.518;2023-11-19T03:02:43;0.22;;;0.22;;
20725;SDS011;10524;48.132;8.518;2023-11-19T03:05:19;0.40;;;0.40;;
20725;SDS011;10524;48.132;8.518;2023-11-19T03:07:45;0.43;;;0.30;;
20725;SDS011;10524;48.132;8.518;2023-11-19T03:10:11;0.30;;;0.30;;
20725;SDS011;10524;48.132;8.518;2023-11-19T03:12:39;1.40;;;0.30;;
20725;SDS011;10524;48.132;8.518;2023-11-19T03:15:06;1.20;;;0.30;;
20725;SDS011;10524;48.132;8.518;2023-11-19T03:17:35;0.20;;;0.20;;
20725;SDS011;10524;48.132;8.518;2023-11-19T03:20:03;0.30;;;0.30;;
20725;SDS011;10524;48.132;8.518;2023-11-19T03:22:32;0.20;;;0.20;;
20725;SDS011;10524;48.132;8.518;2023-11-19T03:24:59;0.30;;;0.30;;
20725;SDS011;10524;48.132;8.518;2023-11-19T03:27:25;0.30;;;0.30;;
20725;SDS011;10524;48.132;8.518;2023-11-19T03:29:51;0.20;;;0.20;;
20725;SDS011;10524;48.132;8.518;2023-11-19T03:32:16;1.75;;;0.30;;
20725;SDS011;10524;48.132;8.518;2023-11-19T03:34:42;0.50;;;0.30;;
20725;SDS011;10524;48.132;8.518;2023-11-19T03:37:08;0.47;;;0.25;;
20725;SDS011;10524;48.132;8.518;2023-11-19T03:39:34;0.17;;;0.17;;
20725;SDS011;10524;48.132;8.518;2023-11-19T03:41:59;0.10;;;0.10;;
20725;SDS011;10524;48.132;8.518;2023-11-19T03:44:26;0.10;;;0.10;;
20725;SDS011;10524;48.132;8.518;2023-11-19T03:46:52;0.98;;;0.13;;
20725;SDS011;10524;48.132;8.518;2023-11-19T03:49:18;0.22;;;0.20;;
20725;SDS011;10524;48.132;8.518;2023-11-19T03:51:44;0.57;;;0.20;;
20725;SDS011;10524;48.132;8.518;2023-11-19T03:54:09;1.30;;;0.20;;
20725;SDS011;10524;48.132;8.518;2023-11-19T03:56:36;0.20;;;0.20;;
20725;SDS011;10524;48.132;8.518;2023-11-19T03:59:02;0.52;;;0.20;;
20725;SDS011;10524;48.132;8.518;2023-11-19T04:01:28;0.20;;;0.20;;
20725;SDS011;10524;48.132;8.518;2023-11-19T04:03:54;0.30;;;0.20;;
20725;SDS011;10524;48.132;8.518;2023-11-19T04:06:21;0.20;;;0.20;;
20725;SDS011;10524;48.132;8.518;2023-11-19T04:08:49;0.20;;;0.20;;
20725;SDS011;10524;48.132;8.518;2023-11-19T04:11:16;0.28;;;0.20;;
20725;SDS011;10524;48.132;8.518;2023-11-19T04:13:42;0.75;;;0.20;;
20725;SDS011;10524;48.132;8.518;2023-11-19T04:16:09;0.30;;;0.20;;
20725;SDS011;10524;48.132;8.518;2023-11-19T04:18:34;0.55;;;0.20;;
20725;SDS011;10524;48.132;8.518;2023-11-19T04:21:00;0.20;;;0.20;;
20725;SDS011;10524;48.132;8.518;2023-11-19T04:23:26;0.30;;;0.30;;
20725;SDS011;10524;48.132;8.518;2023-11-19T04:25:52;0.15;;;0.15;;
20725;SDS011;10524;48.132;8.518;2023-11-19T04:28:19;0.20;;;0.20;;
20725;SDS011;10524;48.132;8.518;2023-11-19T04:30:45;0.20;;;0.20;;
20725;SDS011;10524;48.132;8.518;2023-11-19T04:33:10;0.20;;;0.20;;
20725;SDS011;10524;48.132;8.518;2023-11-19T04:35:36;1.75;;;0.40;;
20725;SDS011;10524;48.132;8.518;2023-11-19T04:38:02;0.22;;;0.20;;
20725;SDS011;10524;48.132;8.518;2023-11-19T04:40:27;0.52;;;0.30;;
20725;SDS011;10524;48.132;8.518;2023-11-19T04:42:53;0.20;;;0.20;;
20725;SDS011;10524;48.132;8.518;2023-11-19T04:45:19;0.20;;;0.20;;
20725;SDS011;10524;48.132;8.518;2023-11-19T04:47:45;0.25;;;0.22;;
20725;SDS011;10524;48.132;8.518;2023-11-19T04:50:11;0.28;;;0.20;;
20725;SDS011;10524;48.132;8.518;2023-11-19T04:52:39;0.30;;;0.30;;
20725;SDS011;10524;48.132;8.518;2023-11-19T04:55:05;0.30;;;0.30;;
20725;SDS011;10524;48.132;8.518;2023-11-19T04:57:31;0.20;;;0.20;;
20725;SDS011;10524;48.132;8.518;2023-11-19T04:59:58;0.20;;;0.20;;
20725;SDS011;10524;48.132;8.518;2023-11-19T05:02:24;0.95;;;0.20;;
20725;SDS011;10524;48.132;8.518;2023-11-19T05:04:50;0.20;;;0.20;;
20725;SDS011;10524;48.132;8.518;2023-11-19T05:07:15;0.52;;;0.30;;
20725;SDS011;10524;48.132;8.518;2023-11-19T05:09:41;0.20;;;0.20;;
20725;SDS011;10524;48.132;8.518;2023-11-19T05:12:08;0.50;;;0.40;;
20725;SDS011;10524;48.132;8.518;2023-11-19T05:14:37;0.30;;;0.30;;
20725;SDS011;10524;48.132;8.518;2023-11-19T05:17:03;0.30;;;0.20;;
20725;SDS011;10524;48.132;8.518;2023-11-19T05:19:29;0.32;;;0.30;;
20725;SDS011;10524;48.132;8.518;2023-11-19T05:21:54;0.32;;;0.32;;
20725;SDS011;10524;48.132;8.518;2023-11-19T05:24:20;0.30;;;0.30;;
20725;SDS011;10524;48.132;8.518;2023-11-19T05:26:46;0.30;;;0.30;;
20725;SDS011;10524;48.132;8.518;2023-11-19T05:29:12;0.20;;;0.20;;
20725;SDS011;10524;48.132;8.518;2023-11-19T05:31:38;0.80;;;0.30;;
20725;SDS011;10524;48.132;8.518;2023-11-19T05:34:03;0.20;;;0.20;;
20725;SDS011;10524;48.132;8.518;2023-11-19T05:36:29;0.20;;;0.20;;
20725;SDS011;10524;48.132;8.518;2023-11-19T05:38:55;0.20;;;0.20;;
20725;SDS011;10524;48.132;8.518;2023-11-19T05:41:21;0.30;;;0.30;;
20725;SDS011;10524;48.132;8.518;2023-11-19T05:43:47;0.20;;;0.20;;
20725;SDS011;10524;48.132;8.518;2023-11-19T05:46:12;0.30;;;0.30;;
20725;SDS011;10524;48.132;8.518;2023-11-19T05:48:38;0.30;;;0.30;;
20725;SDS011;10524;48.132;8.518;2023-11-19T05:51:04;0.50;;;0.50;;
20725;SDS011;10524;48.132;8.518;2023-11-19T05:53:30;0.20;;;0.20;;
20725;SDS011;10524;48.132;8.518;2023-11-19T05:55:57;0.30;;;0.30;;
20725;SDS011;10524;48.132;8.518;2023-11-19T05:58:26;1.05;;;0.30;;
20725;SDS011;10524;48.132;8.518;2023-11-19T06:00:56;0.85;;;0.25;;
20725;SDS011;10524;48.132;8.518;2023-11-19T06:03:22;1.27;;;0.20;;
20725;SDS011;10524;48.132;8.518;2023-11-19T06:05:49;1.60;;;0.40;;
20725;SDS011;10524;48.132;8.518;2023-11-19T06:08:15;0.20;;;0.20;;
20725;SDS011;10524;48.132;8.518;2023-11-19T06:10:42;0.75;;;0.73;;
20725;SDS011;10524;48.132;8.518;2023-11-19T06:13:08;1.40;;;1.30;;
20725;SDS011;10524;48.132;8.518;2023-11-19T06:15:36;1.15;;;1.02;;
20725;SDS011;10524;48.132;8.518;2023-11-19T06:18:02;1.48;;;1.38;;
20725;SDS011;10524;48.132;8.518;2023-11-19T06:20:29;1.67;;;1.10;;
20725;SDS011;10524;48.132;8.518;2023-11-19T06:22:56;4.25;;;3.22;;
20725;SDS011;10524;48.132;8.518;2023-11-19T06:25:22;6.70;;;5.32;;
20725;SDS011;10524;48.132;8.518;2023-11-19T06:27:49;3.67;;;2.67;;
20725;SDS011;10524;48.132;8.518;2023-11-19T06:30:18;2.75;;;2.55;;
20725;SDS011;10524;48.132;8.518;2023-11-19T06:32:44;0.50;;;0.50;;
20725;SDS011;10524;48.132;8.518;2023-11-19T06:35:10;0.60;;;0.40;;
20725;SDS011;10524;48.132;8.518;2023-11-19T06:37:38;0.82;;;0.65;;
20725;SDS011;10524;48.132;8.518;2023-11-19T06:40:04;0.40;;;0.40;;
20725;SDS011;10524;48.132;8.518;2023-11-19T06:42:30;0.60;;;0.60;;
20725;SDS011;10524;48.132;8.518;2023-11-19T06:44:56;0.75;;;0.75;;
20725;SDS011;10524;48.132;8.518;2023-11-19T06:47:25;0.93;;;0.88;;
20725;SDS011;10524;48.132;8.518;2023-11-19T06:49:52;3.65;;;3.35;;
20725;SDS011;10524;48.132;8.518;2023-11-19T06:52:18;2.67;;;2.22;;
20725;SDS011;10524;48.132;8.518;2023-11-19T06:54:44;11.55;;;10.43;;
20725;SDS011;10524;48.132;8.518;2023-11-19T06:57:13;3.13;;;2.83;;
20725;SDS011;10524;48.132;8.518;2023-11-19T06:59:39;4.68;;;4.28;;
20725;SDS011;10524;48.132;8.518;2023-11-19T07:02:05;3.03;;;2.72;;
20725;SDS011;10524;48.132;8.518;2023-11-19T07:04:31;2.10;;;1.65;;
20725;SDS011;10524;48.132;8.518;2023-11-19T07:06:58;0.70;;;0.70;;
20725;SDS011;10524;48.132;8.518;2023-11-19T07:09:25;1.05;;;0.82;;
20725;SDS011;10524;48.132;8.518;2023-11-19T07:11:51;0.75;;;0.65;;
20725;SDS011;10524;48.132;8.518;2023-11-19T07:14:17;0.90;;;0.82;;
20725;SDS011;10524;48.132;8.518;2023-11-19T07:16:43;0.88;;;0.60;;
20725;SDS011;10524;48.132;8.518;2023-11-19T07:19:11;1.83;;;0.60;;
20725;SDS011;10524;48.132;8.518;2023-11-19T07:21:37;1.27;;;0.70;;
20725;SDS011;10524;48.132;8.518;2023-11-19T07:24:09;1.20;;;0.80;;
20725;SDS011;10524;48.132;8.518;2023-11-19T07:26:41;1.45;;;1.10;;
20725;SDS011;10524;48.132;8.518;2023-11-19T07:29:08;1.45;;;1.35;;
20725;SDS011;10524;48.132;8.518;2023-11-19T07:31:34;0.52;;;0.47;;
20725;SDS011;10524;48.132;8.518;2023-11-19T07:34:00;1.00;;;0.68;;
20725;SDS011;10524;48.132;8.518;2023-11-19T07:36:26;2.28;;;0.98;;
20725;SDS011;10524;48.132;8.518;2023-11-19T07:38:52;6.45;;;5.85;;
20725;SDS011;10524;48.132;8.518;2023-11-19T07:41:18;1.85;;;1.65;;
20725;SDS011;10524;48.132;8.518;2023-11-19T07:43:45;1.67;;;1.30;;
20725;SDS011;10524;48.132;8.518;2023-11-19T07:46:15;5.82;;;5.22;;
20725;SDS011;10524;48.132;8.518;2023-11-19T07:48:41;6.15;;;5.55;;
20725;SDS011;10524;48.132;8.518;2023-11-19T07:51:08;5.15;;;4.68;;
20725;SDS011;10524;48.132;8.518;2023-11-19T07:53:34;5.05;;;4.50;;
20725;SDS011;10524;48.132;8.518;2023-11-19T07:56:00;5.95;;;4.97;;
20725;SDS011;10524;48.132;8.518;2023-11-19T07:58:26;9.13;;;8.20;;
20725;SDS011;10524;48.132;8.518;2023-11-19T08:00:52;4.72;;;4.30;;
20725;SDS011;10524;48.132;8.518;2023-11-19T08:03:17;4.55;;;4.15;;
20725;SDS011;10524;48.132;8.518;2023-11-19T08:05:44;6.80;;;5.00;;
20725;SDS011;10524;48.132;8.518;2023-11-19T08:08:11;5.10;;;4.10;;
20725;SDS011;10524;48.132;8.518;2023-11-19T08:10:37;5.95;;;4.43;;
20725;SDS011;10524;48.132;8.518;2023-11-19T08:13:03;5.75;;;4.70;;
20725;SDS011;10524;48.132;8.518;2023-11-19T08:15:29;64.43;;;42.97;;
20725;SDS011;10524;48.132;8.518;2023-11-19T08:17:55;59.95;;;40.28;;
20725;SDS011;10524;48.132;8.518;2023-11-19T08:20:21;62.28;;;41.42;;
20725;SDS011;10524;48.132;8.518;2023-11-19T08:22:47;34.25;;;23.27;;
20725;SDS011;10524;48.132;8.518;2023-11-19T08:25:13;8.57;;;5.47;;
20725;SDS011;10524;48.132;8.518;2023-11-19T08:27:39;3.88;;;3.17;;
20725;SDS011;10524;48.132;8.518;2023-11-19T08:30:05;2.03;;;1.73;;
20725;SDS011;10524;48.132;8.518;2023-11-19T08:32:31;1.45;;;1.15;;
20725;SDS011;10524;48.132;8.518;2023-11-19T08:34:57;5.85;;;5.20;;
20725;SDS011;10524;48.132;8.518;2023-11-19T08:37:23;3.95;;;3.35;;
20725;SDS011;10524;48.132;8.518;2023-11-19T08:39:49;0.88;;;0.88;;
20725;SDS011;10524;48.132;8.518;2023-11-19T08:42:16;2.33;;;2.13;;
20725;SDS011;10524;48.132;8.518;2023-11-19T08:44:42;1.58;;;1.48;;
20725;SDS011;10524;48.132;8.518;2023-11-19T08:49:41;1.67;;;1.20;;
20725;SDS011;10524;48.132;8.518;2023-11-19T08:52:06;3.42;;;2.10;;
20725;SDS011;10524;48.132;8.518;2023-11-19T08:54:33;2.60;;;0.77;;
20725;SDS011;10524;48.132;8.518;2023-11-19T08:56:58;2.30;;;1.80;;
20725;SDS011;10524;48.132;8.518;2023-11-19T08:59:25;1.63;;;0.88;;
20725;SDS011;10524;48.132;8.518;2023-11-19T09:01:51;11.98;;;9.23;;
20725;SDS011;10524;48.132;8.518;2023-11-19T09:04:16;6.03;;;4.60;;
20725;SDS011;10524;48.132;8.518;2023-11-19T09:06:42;4.97;;;3.97;;
20725;SDS011;10524;48.132;8.518;2023-11-19T09:09:09;3.80;;;2.75;;
20725;SDS011;10524;48.132;8.518;2023-11-19T09:11:35;17.88;;;10.85;;
20725;SDS011;10524;48.132;8.518;2023-11-19T09:14:02;16.85;;;10.88;;
20725;SDS011;10524;48.132;8.518;2023-11-19T09:16:27;6.85;;;5.30;;
20725;SDS011;10524;48.132;8.518;2023-11-19T09:18:53;4.63;;;2.42;;
20725;SDS011;10524;48.132;8.518;2023-11-19T09:21:19;2.63;;;2.10;;
20725;SDS011;10524;48.132;8.518;2023-11-19T09:23:45;3.78;;;2.15;;
20725;SDS011;10524;48.132;8.518;2023-11-19T09:26:13;3.50;;;2.15;;
20725;SDS011;10524;48.132;8.518;2023-11-19T09:28:39;12.93;;;8.02;;
20725;SDS011;10524;48.132;8.518;2023-11-19T09:31:17;3.88;;;3.15;;
20725;SDS011;10524;48.132;8.518;2023-11-19T09:33:44;1.20;;;1.10;;
20725;SDS011;10524;48.132;8.518;2023-11-19T09:36:13;1.83;;;1.55;;
20725;SDS011;10524;48.132;8.518;2023-11-19T09:38:40;1.20;;;1.10;;
20725;SDS011;10524;48.132;8.518;2023-11-19T09:41:06;3.38;;;2.13;;
20725;SDS011;10524;48.132;8.518;2023-11-19T09:43:37;0.65;;;0.43;;
20725;SDS011;10524;48.132;8.518;2023-11-19T09:46:04;0.80;;;0.80;;
20725;SDS011;10524;48.132;8.518;2023-11-19T09:48:35;2.17;;;1.73;;
20725;SDS011;10524;48.132;8.518;2023-11-19T09:51:02;1.33;;;1.13;;
20725;SDS011;10524;48.132;8.518;2023-11-19T09:53:29;5.10;;;3.42;;
20725;SDS011;10524;48.132;8.518;2023-11-19T09:55:56;7.90;;;5.78;;
20725;SDS011;10524;48.132;8.518;2023-11-19T09:58:22;2.90;;;2.33;;
20725;SDS011;10524;48.132;8.518;2023-11-19T10:00:48;0.30;;;0.20;;
20725;SDS011;10524;48.132;8.518;2023-11-19T10:03:15;1.23;;;0.40;;
20725;SDS011;10524;48.132;8.518;2023-11-19T10:05:41;0.60;;;0.30;;
20725;SDS011;10524;48.132;8.518;2023-11-19T10:08:07;2.45;;;1.55;;
20725;SDS011;10524;48.132;8.518;2023-11-19T10:10:36;0.80;;;0.60;;
20725;SDS011;10524;48.132;8.518;2023-11-19T10:13:03;0.70;;;0.50;;
20725;SDS011;10524;48.132;8.518;2023-11-19T10:15:28;0.82;;;0.50;;
20725;SDS011;10524;48.132;8.518;2023-11-19T10:18:02;5.22;;;2.38;;
20725;SDS011;10524;48.132;8.518;2023-11-19T10:20:36;1.35;;;0.70;;
20725;SDS011;10524;48.132;8.518;2023-11-19T10:23:03;0.90;;;0.22;;
20725;SDS011;10524;48.132;8.518;2023-11-19T10:25:29;2.30;;;0.70;;
20725;SDS011;10524;48.132;8.518;2023-11-19T10:27:58;1.30;;;0.50;;
20725;SDS011;10524;48.132;8.518;2023-11-19T10:30:24;16.13;;;12.05;;
20725;SDS011;10524;48.132;8.518;2023-11-19T10:35:33;1.35;;;1.05;;
20725;SDS011;10524;48.132;8.518;2023-11-19T10:38:00;0.57;;;0.50;;
20725;SDS011;10524;48.132;8.518;2023-11-19T10:40:39;0.90;;;0.45;;
20725;SDS011;10524;48.132;8.518;2023-11-19T10:43:08;0.30;;;0.30;;
20725;SDS011;10524;48.132;8.518;2023-11-19T10:45:35;0.65;;;0.30;;
20725;SDS011;10524;48.132;8.518;2023-11-19T10:48:05;0.40;;;0.30;;
20725;SDS011;10524;48.132;8.518;2023-11-19T10:50:39;0.30;;;0.30;;
20725;SDS011;10524;48.132;8.518;2023-11-19T10:53:07;1.05;;;0.20;;
20725;SDS011;10524;48.132;8.518;2023-11-19T10:55:35;0.68;;;0.28;;
20725;SDS011;10524;48.132;8.518;2023-11-19T10:58:05;0.13;;;0.13;;
20725;SDS011;10524;48.132;8.518;2023-11-19T11:01:18;0.20;;;0.20;;
20725;SDS011;10524;48.132;8.518;2023-11-19T11:03:29;0.28;;;0.20;;
20725;SDS011;10524;48.132;8.518;2023-11-19T11:06:00;0.70;;;0.50;;
20725;SDS011;10524;48.132;8.518;2023-11-19T11:08:28;0.60;;;0.40;;
20725;SDS011;10524;48.132;8.518;2023-11-19T11:10:56;0.28;;;0.28;;
20725;SDS011;10524;48.132;8.518;2023-11-19T11:13:23;0.30;;;0.30;;
20725;SDS011;10524;48.132;8.518;2023-11-19T11:15:50;0.40;;;0.40;;
20725;SDS011;10524;48.132;8.518;2023-11-19T11:18:16;1.38;;;0.40;;
20725;SDS011;10524;48.132;8.518;2023-11-19T11:20:46;0.40;;;0.40;;
20725;SDS011;10524;48.132;8.518;2023-11-19T11:31:28;0.30;;;0.20;;
20725;SDS011;10524;48.132;8.518;2023-11-19T11:39:33;0.70;;;0.50;;
20725;SDS011;10524;48.132;8.518;2023-11-19T11:42:33;0.73;;;0.40;;
20725;SDS011;10524;48.132;8.518;2023-11-19T11:45:34;1.48;;;0.50;;
20725;SDS011;10524;48.132;8.518;2023-11-19T11:50:20;1.88;;;0.38;;
20725;SDS011;10524;48.132;8.518;2023-11-19T11:58:02;2.03;;;0.28;;
20725;SDS011;10524;48.132;8.518;2023-11-19T12:02:56;0.80;;;0.35;;
20725;SDS011;10524;48.132;8.518;2023-11-19T12:05:24;0.20;;;0.20;;
20725;SDS011;10524;48.132;8.518;2023-11-19T12:07:56;0.20;;;0.20;;
20725;SDS011;10524;48.132;8.518;2023-11-19T12:10:29;0.98;;;0.30;;
20725;SDS011;10524;48.132;8.518;2023-11-19T12:13:00;0.47;;;0.30;;
20725;SDS011;10524;48.132;8.518;2023-11-19T12:15:26;0.40;;;0.40;;
20725;SDS011;10524;48.132;8.518;2023-11-19T12:17:55;0.20;;;0.20;;
20725;SDS011;10524;48.132;8.518;2023-11-19T12:20:22;0.98;;;0.40;;
20725;SDS011;10524;48.132;8.518;2023-11-19T12:22:52;1.30;;;0.60;;
20725;SDS011;10524;48.132;8.518;2023-11-19T12:25:19;1.02;;;0.50;;
20725;SDS011;10524;48.132;8.518;2023-11-19T12:27:46;0.30;;;0.30;;
20725;SDS011;10524;48.132;8.518;2023-11-19T12:30:22;1.25;;;0.57;;
20725;SDS011;10524;48.132;8.518;2023-11-19T12:32:52;0.30;;;0.30;;
20725;SDS011;10524;48.132;8.518;2023-11-19T12:35:19;0.82;;;0.20;;
20725;SDS011;10524;48.132;8.518;2023-11-19T12:37:48;0.95;;;0.38;;
20725;SDS011;10524;48.132;8.518;2023-11-19T12:42:45;0.73;;;0.40;;
20725;SDS011;10524;48.132;8.518;2023-11-19T12:45:12;0.50;;;0.40;;
20725;SDS011;10524;48.132;8.518;2023-11-19T12:47:41;0.93;;;0.55;;
20725;SDS011;10524;48.132;8.518;2023-11-19T12:50:13;0.50;;;0.40;;
20725;SDS011;10524;48.132;8.518;2023-11-19T12:52:39;1.20;;;0.60;;
20725;SDS011;10524;48.132;8.518;2023-11-19T12:55:06;0.50;;;0.47;;
20725;SDS011;10524;48.132;8.518;2023-11-19T12:57:50;0.52;;;0.32;;
20725;SDS011;10524;48.132;8.518;2023-11-19T13:00:19;0.52;;;0.45;;
20725;SDS011;10524;48.132;8.518;2023-11-19T13:02:47;0.38;;;0.38;;
20725;SDS011;10524;48.132;8.518;2023-11-19T13:08:08;0.40;;;0.40;;
20725;SDS011;10524;48.132;8.518;2023-11-19T13:10:53;0.30;;;0.30;;
20725;SDS011;10524;48.132;8.518;2023-11-19T13:13:19;0.63;;;0.30;;
20725;SDS011;10524;48.132;8.518;2023-11-19T13:15:44;0.70;;;0.60;;
20725;SDS011;10524;48.132;8.518;2023-11-19T13:18:11;0.40;;;0.40;;
20725;SDS011;10524;48.132;8.518;2023-11-19T13:20:37;0.40;;;0.40;;
20725;SDS011;10524;48.132;8.518;2023-11-19T13:23:04;0.30;;;0.30;;
20725;SDS011;10524;48.132;8.518;2023-11-19T13:25:31;0.50;;;0.40;;
20725;SDS011;10524;48.132;8.518;2023-11-19T13:27:59;0.60;;;0.40;;
20725;SDS011;10524;48.132;8.518;2023-11-19T13:30:25;0.47;;;0.38;;
20725;SDS011;10524;48.132;8.518;2023-11-19T13:32:51;0.35;;;0.35;;
20725;SDS011;10524;48.132;8.518;2023-11-19T13:35:19;0.65;;;0.30;;
20725;SDS011;10524;48.132;8.518;2023-11-19T13:37:46;0.50;;;0.50;;
20725;SDS011;10524;48.132;8.518;2023-11-19T13:40:12;0.30;;;0.30;;
20725;SDS011;10524;48.132;8.518;2023-11-19T13:42:39;0.75;;;0.30;;
20725;SDS011;10524;48.132;8.518;2023-11-19T13:45:15;1.00;;;0.30;;
20725;SDS011;10524;48.132;8.518;2023-11-19T13:47:43;0.30;;;0.30;;
20725;SDS011;10524;48.132;8.518;2023-11-19T13:50:10;0.30;;;0.30;;
20725;SDS011;10524;48.132;8.518;2023-11-19T13:52:38;0.28;;;0.28;;
20725;SDS011;10524;48.132;8.518;2023-11-19T13:55:07;0.60;;;0.50;;
20725;SDS011;10524;48.132;8.518;2023-11-19T13:57:34;0.40;;;0.30;;
20725;SDS011;10524;48.132;8.518;2023-11-19T14:00:01;0.30;;;0.30;;
20725;SDS011;10524;48.132;8.518;2023-11-19T14:02:34;0.35;;;0.30;;
20725;SDS011;10524;48.132;8.518;2023-11-19T14:04:59;0.50;;;0.30;;
20725;SDS011;10524;48.132;8.518;2023-11-19T14:07:25;0.30;;;0.30;;
20725;SDS011;10524;48.132;8.518;2023-11-19T14:09:52;0.43;;;0.40;;
20725;SDS011;10524;48.132;8.518;2023-11-19T14:12:17;0.63;;;0.50;;
20725;SDS011;10524;48.132;8.518;2023-11-19T14:14:43;0.50;;;0.38;;
20725;SDS011;10524;48.132;8.518;2023-11-19T14:17:09;0.60;;;0.47;;
20725;SDS011;10524;48.132;8.518;2023-11-19T14:19:36;0.82;;;0.50;;
20725;SDS011;10524;48.132;8.518;2023-11-19T14:22:04;3.53;;;0.73;;
20725;SDS011;10524;48.132;8.518;2023-11-19T14:24:30;1.02;;;0.60;;
20725;SDS011;10524;48.132;8.518;2023-11-19T14:26:56;1.75;;;0.57;;
20725;SDS011;10524;48.132;8.518;2023-11-19T14:29:24;0.88;;;0.52;;
20725;SDS011;10524;48.132;8.518;2023-11-19T14:31:56;2.42;;;0.80;;
20725;SDS011;10524;48.132;8.518;2023-11-19T14:34:22;2.42;;;0.90;;
20725;SDS011;10524;48.132;8.518;2023-11-19T14:36:48;2.05;;;0.82;;
20725;SDS011;10524;48.132;8.518;2023-11-19T14:39:14;6.35;;;2.10;;
20725;SDS011;10524;48.132;8.518;2023-11-19T14:41:40;0.95;;;0.50;;
20725;SDS011;10524;48.132;8.518;2023-11-19T14:44:07;1.05;;;0.60;;
20725;SDS011;10524;48.132;8.518;2023-11-19T14:46:34;1.10;;;0.90;;
20725;SDS011;10524;48.132;8.518;2023-11-19T14:49:00;2.75;;;1.27;;
20725;SDS011;10524;48.132;8.518;2023-11-19T14:51:26;2.65;;;1.25;;
20725;SDS011;10524;48.132;8.518;2023-11-19T14:53:52;5.15;;;2.35;;
20725;SDS011;10524;48.132;8.518;2023-11-19T14:56:18;2.65;;;0.90;;
20725;SDS011;10524;48.132;8.518;2023-11-19T14:58:43;3.38;;;1.42;;
20725;SDS011;10524;48.132;8.518;2023-11-19T15:01:13;2.83;;;0.77;;
20725;SDS011;10524;48.132;8.518;2023-11-19T15:03:39;1.27;;;0.50;;
20725;SDS011;10524;48.132;8.518;2023-11-19T15:06:05;2.45;;;0.68;;
20725;SDS011;10524;48.132;8.518;2023-11-19T15:08:34;1.58;;;0.70;;
20725;SDS011;10524;48.132;8.518;2023-11-19T15:11:00;1.85;;;0.80;;
20725;SDS011;10524;48.132;8.518;2023-11-19T15:13:27;1.60;;;1.13;;
20725;SDS011;10524;48.132;8.518;2023-11-19T15:15:53;1.67;;;0.98;;
20725;SDS011;10524;48.132;8.518;2023-11-19T15:18:20;1.15;;;0.90;;
20725;SDS011;10524;48.132;8.518;2023-11-19T15:20:46;3.58;;;0.88;;
20725;SDS011;10524;48.132;8.518;2023-11-19T15:23:15;1.23;;;0.90;;